PDT,Max TemperatureF,Mean TemperatureF,Min TemperatureF,Max Dew PointF,MeanDew PointF,Min DewpointF,Max Humidity, Mean Humidity, Min Humidity, Max Sea Level PressureIn, Mean Sea Level PressureIn, Min Sea Level PressureIn, Max VisibilityMiles, Mean VisibilityMiles, Min VisibilityMiles, Max Wind SpeedMPH, Mean Wind SpeedMPH, Max Gust SpeedMPH,PrecipitationIn, CloudCover, Events, WindDirDegrees
2012-10-1,101,79,56,52,45,34,72,42,11,29.98,29.92,29.86,10,10,10,13,3,30,0.00,0,,262
2012-10-2,101,79,57,55,44,32,80,46,11,29.88,29.84,29.79,10,10,10,12,3,26,0.00,0,,246
2012-10-3,73,63,52,58,54,48,86,73,60,30.04,29.94,29.85,10,10,8,17,5,29,0.00,5,,254
2012-10-4,67,60,53,55,53,50,93,76,58,30.16,30.12,30.05,10,10,10,13,5,21,0.00,5,,253
2012-10-5,72,62,52,55,53,50,100,77,53,30.17,30.13,30.06,10,9,2,10,3,21,0.00,4,,128
2012-10-6,76,64,51,54,51,49,96,67,38,30.08,30.02,29.95,10,10,10,15,4,17,0.00,0,,275
2012-10-7,72,61,49,53,50,47,89,67,44,30.03,29.99,29.94,10,10,10,10,4,14,0.00,0,,313
2012-10-8,69,59,48,55,51,46,93,73,53,30.05,30.03,30.01,10,10,10,15,5,21,0.00,2,,261
2012-10-9,73,62,50,55,51,47,93,67,41,30.05,30.00,29.95,10,10,10,16,4,20,T,5,,280
2012-10-10,66,61,55,57,54,52,93,83,72,29.97,29.95,29.93,10,10,9,10,3,20,0.02,7,Rain-Thunderstorm,67
2012-10-11,59,57,54,54,52,49,93,83,72,29.99,29.95,29.91,10,9,5,12,2,28,0.07,8,Rain,244
2012-10-12,65,59,53,55,53,51,93,80,67,30.23,30.10,29.99,10,8,2,12,2,15,T,7,Rain,196
2012-10-13,72,60,47,54,51,48,100,75,49,30.30,30.24,30.17,10,10,10,17,2,,0.00,1,,263
2012-10-14,78,64,50,57,53,48,93,68,43,30.20,30.14,30.05,10,10,10,9,3,22,0.00,0,,231
2012-10-15,79,65,51,56,54,50,96,69,42,30.08,30.02,29.95,10,10,10,8,3,29,0.01,0,,188
2012-10-16,81,68,54,61,56,52,93,71,49,30.01,29.94,29.87,10,10,7,9,3,26,0.00,0,,227
2012-10-17,87,70,52,56,46,35,100,59,17,29.90,29.86,29.80,10,10,10,21,3,32,0.00,0,,282
2012-10-18,87,71,54,63,47,34,87,54,21,30.06,29.96,29.86,10,10,10,23,6,35,0.00,2,,275
2012-10-19,71,64,57,63,60,56,100,84,68,30.07,30.00,29.94,10,8,2,12,4,20,0.00,7,,224
2012-10-20,66,58,50,57,54,48,100,86,72,29.94,29.90,29.84,10,7,0,8,3,18,0.01,7,Fog,114
2012-10-21,64,54,44,49,46,42,93,71,48,29.97,29.92,29.88,10,10,9,33,3,95,0.02,2,Rain,58
2012-10-22,64,58,51,55,51,46,93,75,56,29.98,29.89,29.83,10,9,2,20,4,25,0.16,6,Rain,239
2012-10-23,63,54,45,49,47,41,93,70,46,30.07,30.02,29.97,10,10,7,13,4,30,0.03,4,Rain,210
2012-10-24,65,55,44,53,49,42,93,80,67,30.21,30.15,30.07,10,10,5,12,3,16,0.05,5,Rain,288
2012-10-25,71,61,51,54,50,44,93,72,51,30.23,30.20,30.17,10,10,10,12,3,20,0.00,5,,21
2012-10-26,73,59,45,49,41,36,82,56,29,30.22,30.16,30.09,10,10,10,9,3,12,0.00,0,,296
2012-10-27,79,63,47,55,48,42,87,61,35,30.08,30.01,29.94,10,10,10,10,2,17,0.00,0,,263
2012-10-28,80,65,50,55,52,49,100,70,39,30.04,29.99,29.94,10,8,0,12,3,15,0.00,3,Fog,167
2012-10-29,75,62,48,55,52,46,100,77,53,30.12,30.07,30.04,10,3,0,12,2,14,0.00,5,Fog,141
2012-10-30,72,61,50,55,52,50,100,79,57,30.11,30.04,30.00,10,3,0,13,3,14,0.00,6,Fog,185
2012-10-31,60,56,52,54,53,52,100,88,75,30.07,30.03,30.00,10,7,2,9,2,26,0.03,8,,268